aviador You're here:

LFOV Decoded Metar

LAVAL in FRANCE
Report Time2017-11-25 09:00:00
UTC Time2017-11-25 09:30:01
Flight Rules vfr VFR
Wind280° at 08 kt
W.Decomp.*RWY 32: 6.2 kt HW 5 kt LCW
W.Rank280° ranks 18
Current wind is above 280° avg. (7.0)
Visibility9999 m
Phenomena:N/A
Clouds:N/A
Expected CloudBase > 800 ft AGL from Temp-Dew spread
CeilingNone
Temp05°C (ISA -9)
Dew Point03°C (87% RH)
AAT0.6°C
QNH1019 hPa
Density Alt-912 ft
Elevation318 ft
Report Wrong Elevation
Raw Report
METAR LFOV 250900Z AUTO 28008KT CAVOK 05/03 Q1019=

Extra information for LFOV:More info

Metar Taf Metar & Taf Last 4 Metars F.Rules Stats Wind Profile Meteogram Temp Stats Airport Information Weather charts Add Link Nearby VenuesMetar ALERT Operation Metar Decoded Social comments